Houston, Canada
Current Conditions -  °F | °C
As of 5:00 AM on Thursday 18 Dec 2014 (Local Time) from CYYD Reporting Station
Overcast Overcast  
Wind Chill: 21°   Ceiling: 2200
Heat Index: 28°   Visibility: 9mi
Dew Point: 25°   Wind: 7mph
Humidity: 86%   Direction: 170°S
Pressure: 29.79"   Gusts: NA
Location:  54.4°N, 126.65°W
Report Text: CYYD 181300Z AUTO 17006KT 9SM FEW016 OVC022 M02/M04 A2979 RMK SLP110
Loading
Personal Weather Stations






























Interactive Weather Map New forecast layout! Learn more

10-Day Weather Forecast

Advertisements
Track Severe Weather on mobile